Portada
METAR-TAF:

METAR-TAF

Aeroports :

St. Clair County International Airport

Port Huron, Michigan, Estats Units d'Amèrica

latitud: 42-55N, longitud: 082-32W, altitud: 198 m

Observació

L'informe es va fer fa 21 minuts, a les 07:15 UTC
Vent 8 kt del Sud-Oest, variant entre Sud/Sud-Oest i Oest
Temperatura 7°C
Humitat 70%
Pressió 1008 hPa
Visibilitat: 16.1 km
Cel cobert a una alçada de 2700 ft

METAR: KPHN 300715Z AUTO 23008KT 200V280 10SM OVC027 07/02 A2976 RMK AO2AO2

Hora: 03:36 (07:36 UTC)


TAF: manca

Observacions i pronòstics meteorològics de més de 4000 aeroports (METAR i TAF).

Les estacions disponibles són els punts grocs i vermells al mapa.

Posi el ratolí al punt desitjat per veure el nom de l'estació.

Feu clic per veure les observacions i els pronòstics meteorològics.

Per canviar el mapa: feu clic els botons verds amb una creu de color negre per apropar; al botó verd amb un guió per allunyar la imatge; o en les fletxes verdes per a mapes adjacents.


METAR-TAF: